createdAt,value
2018-12-02T00:00:56.952Z,0
2018-12-02T00:01:56.259Z,0
2018-12-02T00:02:56.460Z,0
2018-12-02T00:03:56.693Z,0
2018-12-02T00:04:56.679Z,0
2018-12-02T00:05:56.656Z,0
2018-12-02T00:06:56.650Z,0
2018-12-02T00:07:56.627Z,0
2018-12-02T00:08:56.603Z,0
2018-12-02T00:09:56.094Z,0
2018-12-02T00:10:56.320Z,0
2018-12-02T00:11:56.556Z,0
2018-12-02T00:12:56.539Z,0
2018-12-02T00:13:56.314Z,0
2018-12-02T00:14:56.502Z,0
2018-12-02T00:15:56.496Z,0
2018-12-02T00:16:56.218Z,0
2018-12-02T00:17:56.452Z,0
2018-12-02T00:18:56.438Z,0
2018-12-02T00:19:56.421Z,0
2018-12-02T00:20:56.151Z,0
2018-12-02T00:21:56.389Z,0
2018-12-02T00:22:57.734Z,0
2018-12-02T00:23:56.352Z,0
2018-12-02T00:24:56.330Z,0
2018-12-02T00:25:56.314Z,0
2018-12-02T00:26:56.298Z,0
2018-12-02T00:27:56.282Z,0
2018-12-02T00:28:56.276Z,0
2018-12-02T00:29:56.244Z,0
2018-12-02T00:30:56.230Z,0
2018-12-02T00:31:55.961Z,0
2018-12-02T00:32:55.944Z,0
2018-12-02T00:33:55.922Z,0
2018-12-02T00:34:56.162Z,0
2018-12-02T00:35:56.142Z,0
2018-12-02T00:36:56.123Z,0
2018-12-02T00:37:56.118Z,0
2018-12-02T00:38:56.098Z,0
2018-12-02T00:39:56.077Z,0
2018-12-02T00:40:55.816Z,0
2018-12-02T00:41:56.037Z,0
2018-12-02T00:42:56.043Z,0
2018-12-02T00:43:56.006Z,0
2018-12-02T00:44:55.987Z,0
2018-12-02T00:45:55.977Z,0
2018-12-02T00:46:56.004Z,0
2018-12-02T00:47:55.688Z,0
2018-12-02T00:48:55.923Z,0
2018-12-02T00:49:55.902Z,0
2018-12-02T00:50:55.930Z,0
2018-12-02T00:51:55.878Z,0
2018-12-02T00:52:55.853Z,0
2018-12-02T00:53:55.600Z,0
2018-12-02T00:54:55.323Z,0
2018-12-02T00:55:55.797Z,0
2018-12-02T00:56:55.542Z,0
2018-12-02T00:57:55.769Z,0
2018-12-02T00:58:55.748Z,0
2018-12-02T00:59:55.737Z,0
2018-12-02T01:00:55.467Z,0
2018-12-02T01:01:55.701Z,0
2018-12-02T01:02:55.679Z,0
2018-12-02T01:03:55.419Z,0
2018-12-02T01:04:55.654Z,0
2018-12-02T01:05:55.641Z,0
2018-12-02T01:07:00.747Z,0
2018-12-02T01:07:55.606Z,0
2018-12-02T01:08:55.597Z,0
2018-12-02T01:09:55.562Z,0
2018-12-02T01:10:55.558Z,0
2018-12-02T01:11:55.037Z,0
2018-12-02T01:12:55.321Z,0
2018-12-02T01:13:55.502Z,0
2018-12-02T01:14:55.485Z,0
2018-12-02T01:15:55.214Z,0
2018-12-02T01:16:55.201Z,0
2018-12-02T01:17:55.204Z,0
2018-12-02T01:18:54.914Z,0
2018-12-02T01:19:55.394Z,0
2018-12-02T01:20:55.375Z,0
2018-12-02T01:21:55.107Z,0
2018-12-02T01:22:55.343Z,0
2018-12-02T01:23:55.081Z,0
2018-12-02T01:24:55.314Z,0
2018-12-02T01:25:55.294Z,0
2018-12-02T01:26:56.118Z,0
2018-12-02T01:27:54.770Z,0
2018-12-02T01:28:55.250Z,0
2018-12-02T01:29:55.230Z,0
2018-12-02T01:30:54.968Z,0
2018-12-02T01:31:54.943Z,0
2018-12-02T01:32:55.180Z,0
2018-12-02T01:33:54.909Z,0
2018-12-02T01:34:54.906Z,0
2018-12-02T01:35:54.885Z,0
2018-12-02T01:36:55.109Z,0
2018-12-02T01:37:54.847Z,0
2018-12-02T01:38:55.073Z,0
2018-12-02T01:39:54.812Z,0
2018-12-02T01:40:55.062Z,0
2018-12-02T01:41:55.032Z,0
2018-12-02T01:42:55.026Z,0
2018-12-02T01:43:54.995Z,0
2018-12-02T01:44:54.975Z,0
2018-12-02T01:45:54.961Z,0
2018-12-02T01:46:54.942Z,0
2018-12-02T01:47:54.190Z,0
2018-12-02T01:48:54.907Z,0
2018-12-02T01:49:54.885Z,0
2018-12-02T01:50:54.636Z,0
2018-12-02T01:51:54.854Z,0
2018-12-02T01:52:54.847Z,0
2018-12-02T01:53:54.824Z,0
2018-12-02T01:54:54.804Z,0
2018-12-02T01:55:54.300Z,0
2018-12-02T01:56:54.775Z,0
2018-12-02T01:57:54.762Z,0
2018-12-02T01:58:54.761Z,0
2018-12-02T01:59:54.482Z,0
2018-12-02T02:00:54.706Z,0
2018-12-02T02:01:54.455Z,0
2018-12-02T02:02:54.193Z,0
2018-12-02T02:03:54.663Z,0
2018-12-02T02:04:54.649Z,0
2018-12-02T02:05:54.632Z,0
2018-12-02T02:06:54.629Z,0
2018-12-02T02:07:54.618Z,0
2018-12-02T02:08:54.082Z,0
2018-12-02T02:09:54.318Z,0
2018-12-02T02:10:54.293Z,0
2018-12-02T02:11:54.278Z,0
2018-12-02T02:12:54.512Z,0
2018-12-02T02:13:54.501Z,0
2018-12-02T02:14:53.991Z,0
2018-12-02T02:15:54.217Z,0
2018-12-02T02:16:54.507Z,0
2018-12-02T02:17:54.440Z,0
2018-12-02T02:18:54.425Z,0
2018-12-02T02:19:54.397Z,0
2018-12-02T02:20:54.135Z,0
2018-12-02T02:21:54.113Z,0
2018-12-02T02:22:54.348Z,0
2018-12-02T02:23:54.601Z,0
2018-12-02T02:24:54.058Z,0
2018-12-02T02:25:54.299Z,0
2018-12-02T02:30:41.810Z,0
2018-12-02T02:30:57.821Z,0
2018-12-02T02:31:57.814Z,0
2018-12-02T02:32:57.815Z,0
2018-12-02T02:33:57.523Z,0
2018-12-02T02:34:57.766Z,0
2018-12-02T02:35:57.745Z,0
2018-12-02T02:36:57.727Z,0
2018-12-02T02:37:57.224Z,0
2018-12-02T02:38:57.688Z,0
2018-12-02T02:39:57.678Z,0
2018-12-02T02:40:57.156Z,0
2018-12-02T02:41:57.644Z,0
2018-12-02T02:42:57.626Z,0
2018-12-02T02:43:57.617Z,0
2018-12-02T02:44:57.612Z,0
2018-12-02T02:45:57.571Z,0
2018-12-02T02:46:57.555Z,0
2018-12-02T02:47:57.548Z,0
2018-12-02T02:48:57.522Z,0
2018-12-02T02:49:57.507Z,0
2018-12-02T02:50:57.484Z,0
2018-12-02T02:51:57.484Z,0
2018-12-02T02:52:57.452Z,0
2018-12-02T02:53:56.935Z,0
2018-12-02T02:54:57.430Z,0
2018-12-02T02:55:57.407Z,0
2018-12-02T02:56:57.394Z,0
2018-12-02T02:57:56.870Z,0
2018-12-02T02:58:57.110Z,0
2018-12-02T02:59:57.091Z,0
2018-12-02T03:00:56.840Z,0
2018-12-02T03:01:57.306Z,0
2018-12-02T03:02:57.285Z,0
2018-12-02T03:03:57.020Z,0
2018-12-02T03:04:57.264Z,0
2018-12-02T03:05:56.989Z,0
2018-12-02T03:06:57.269Z,0
2018-12-02T03:07:56.708Z,0
2018-12-02T03:08:57.188Z,0
2018-12-02T03:09:57.174Z,0
2018-12-02T03:10:56.901Z,0
2018-12-02T03:11:57.137Z,0
2018-12-02T03:12:57.141Z,0
2018-12-02T03:13:57.106Z,0
2018-12-02T03:14:57.104Z,0
2018-12-02T03:15:57.068Z,0
2018-12-02T03:16:56.815Z,0
2018-12-02T03:17:56.804Z,0
2018-12-02T03:18:57.029Z,0
2018-12-02T03:19:57.061Z,0
2018-12-02T03:20:56.986Z,0
2018-12-02T03:21:56.982Z,0
2018-12-02T03:22:56.980Z,0
2018-12-02T03:23:56.939Z,0
2018-12-02T03:24:56.985Z,0
2018-12-02T03:25:56.909Z,0
2018-12-02T03:26:56.638Z,0
2018-12-02T03:27:56.396Z,0
2018-12-02T03:28:56.855Z,0
2018-12-02T03:29:56.592Z,0
2018-12-02T03:30:56.834Z,0
2018-12-02T03:31:56.621Z,0
2018-12-02T03:32:56.859Z,0
2018-12-02T03:33:56.809Z,0
2018-12-02T03:34:56.522Z,0
2018-12-02T03:35:56.748Z,0
2018-12-02T03:36:56.721Z,0
2018-12-02T03:37:56.483Z,0
2018-12-02T03:38:56.690Z,0
2018-12-02T03:39:56.678Z,0
2018-12-02T03:40:56.412Z,0
2018-12-02T03:41:56.388Z,0
2018-12-02T03:42:56.637Z,0
2018-12-02T03:43:56.616Z,0
2018-12-02T03:44:56.606Z,0
2018-12-02T03:45:56.584Z,0
2018-12-02T03:46:56.563Z,0
2018-12-02T03:47:56.305Z,0
2018-12-02T03:48:56.534Z,0
2018-12-02T03:49:56.525Z,0
2018-12-02T03:50:56.248Z,0
2018-12-02T03:51:56.263Z,0
2018-12-02T03:52:55.965Z,0
2018-12-02T03:53:55.968Z,0
2018-12-02T03:54:56.446Z,0
2018-12-02T03:55:56.463Z,0
2018-12-02T03:56:56.397Z,0
2018-12-02T03:57:56.388Z,0
2018-12-02T03:58:56.360Z,0
2018-12-02T03:59:56.355Z,0
2018-12-02T04:00:56.332Z,0
2018-12-02T04:01:56.067Z,0
2018-12-02T04:02:56.046Z,0
2018-12-02T04:03:56.031Z,0
2018-12-02T04:04:56.266Z,0
2018-12-02T04:05:56.253Z,0
2018-12-02T04:06:56.242Z,0
2018-12-02T04:07:56.236Z,0
2018-12-02T04:08:55.959Z,0
2018-12-02T04:09:56.187Z,0
2018-12-02T04:10:55.913Z,0
2018-12-02T04:11:55.903Z,0
2018-12-02T04:12:55.669Z,0
2018-12-02T04:13:56.124Z,0
2018-12-02T04:14:55.847Z,0
2018-12-02T04:15:55.842Z,0
2018-12-02T04:16:55.821Z,0
2018-12-02T04:17:56.065Z,0
2018-12-02T04:18:56.042Z,0
2018-12-02T04:19:56.033Z,0
2018-12-02T04:20:55.770Z,0
2018-12-02T04:21:56.909Z,0
2018-12-02T04:22:56.038Z,0
2018-12-02T04:23:55.952Z,0
2018-12-02T04:24:55.941Z,0
2018-12-02T04:25:55.674Z,0
2018-12-02T04:26:55.662Z,0
2018-12-02T04:27:55.891Z,0
2018-12-02T04:28:55.389Z,0
2018-12-02T04:29:55.849Z,0
2018-12-02T04:30:55.856Z,0
2018-12-02T04:31:55.832Z,0
2018-12-02T04:32:55.851Z,0
2018-12-02T04:33:55.302Z,0
2018-12-02T04:34:55.789Z,0
2018-12-02T04:35:55.269Z,0
2018-12-02T04:36:55.246Z,0
2018-12-02T04:37:55.741Z,0
2018-12-02T04:38:55.719Z,0
2018-12-02T04:39:55.449Z,0
2018-12-02T04:40:55.690Z,0
2018-12-02T04:41:55.422Z,0
2018-12-02T04:42:55.661Z,0
2018-12-02T04:43:55.395Z,0
2018-12-02T04:44:55.622Z,0
2018-12-02T04:45:55.604Z,0
2018-12-02T04:46:55.589Z,0
2018-12-02T04:47:55.579Z,0
2018-12-02T04:48:55.560Z,0
2018-12-02T04:49:55.054Z,0
2018-12-02T04:50:55.277Z,0
2018-12-02T04:51:55.510Z,0
2018-12-02T04:52:55.504Z,0
2018-12-02T04:53:55.475Z,0
2018-12-02T04:54:55.456Z,0
2018-12-02T04:55:55.186Z,0
2018-12-02T04:56:55.183Z,0
2018-12-02T04:57:54.934Z,0
2018-12-02T04:58:55.404Z,0
2018-12-02T04:59:56.871Z,0
2018-12-02T05:00:55.365Z,0
2018-12-02T05:01:54.851Z,0
2018-12-02T05:02:55.322Z,0
2018-12-02T05:03:55.321Z,0
2018-12-02T05:04:55.377Z,0
2018-12-02T05:05:55.282Z,0
2018-12-02T05:06:55.264Z,0
2018-12-02T05:07:55.267Z,0
2018-12-02T05:08:55.251Z,0
2018-12-02T05:09:55.215Z,0
2018-12-02T05:10:54.961Z,0
2018-12-02T05:11:55.195Z,0
2018-12-02T05:12:55.173Z,0
2018-12-02T05:13:55.158Z,0
2018-12-02T05:14:55.143Z,0
2018-12-02T05:15:55.124Z,0
2018-12-02T05:16:55.115Z,0
2018-12-02T05:17:55.149Z,0
2018-12-02T05:18:55.072Z,0
2018-12-02T05:19:54.797Z,0
2018-12-02T05:20:55.047Z,0
2018-12-02T05:21:55.026Z,0
2018-12-02T05:22:55.004Z,0
2018-12-02T05:23:54.986Z,0
2018-12-02T05:24:54.975Z,0
2018-12-02T05:25:54.955Z,0
2018-12-02T05:26:54.703Z,0
2018-12-02T05:27:54.710Z,0
2018-12-02T05:28:54.914Z,0
2018-12-02T05:29:54.656Z,0
2018-12-02T05:30:54.655Z,0
2018-12-02T05:31:54.855Z,0
2018-12-02T05:32:54.852Z,0
2018-12-02T05:33:54.578Z,0
2018-12-02T05:34:54.812Z,0
2018-12-02T05:35:54.801Z,0
2018-12-02T05:36:54.802Z,0
2018-12-02T05:37:54.757Z,0
2018-12-02T05:38:54.757Z,0
2018-12-02T05:39:54.724Z,0
2018-12-02T05:40:54.465Z,0
2018-12-02T05:41:54.692Z,0
2018-12-02T05:42:54.678Z,0
2018-12-02T05:43:54.424Z,0
2018-12-02T05:44:54.646Z,0
2018-12-02T05:45:54.634Z,0
2018-12-02T05:46:54.364Z,0
2018-12-02T05:47:54.341Z,0
2018-12-02T05:48:54.593Z,0
2018-12-02T05:49:54.565Z,0
2018-12-02T05:50:54.543Z,0
2018-12-02T05:51:54.533Z,0
2018-12-02T05:52:54.566Z,0
2018-12-02T05:53:54.497Z,0
2018-12-02T05:54:54.481Z,0
2018-12-02T05:55:54.467Z,0
2018-12-02T05:56:54.198Z,0
2018-12-02T05:57:54.186Z,0
2018-12-02T05:58:54.170Z,0
2018-12-02T05:59:54.162Z,0
2018-12-02T06:00:54.382Z,0
2018-12-02T06:01:54.377Z,0
2018-12-02T06:02:54.360Z,0
2018-12-02T06:03:54.090Z,0
2018-12-02T06:04:54.325Z,0
2018-12-02T06:05:54.306Z,0
2018-12-02T06:06:53.796Z,0
2018-12-02T06:07:54.031Z,0
2018-12-02T06:08:54.259Z,0
2018-12-02T06:09:54.243Z,0
2018-12-02T06:10:53.734Z,0
2018-12-02T06:11:53.969Z,0
2018-12-02T06:12:53.699Z,0
2018-12-02T06:13:53.938Z,0
2018-12-02T06:14:54.164Z,0
2018-12-02T06:15:54.160Z,0
2018-12-02T06:16:54.134Z,0
2018-12-02T06:17:53.862Z,0
2018-12-02T06:18:54.096Z,0
2018-12-02T06:19:53.833Z,0
2018-12-02T06:20:54.640Z,0
2018-12-02T06:21:54.051Z,0
2018-12-02T06:22:53.797Z,0
2018-12-02T06:23:53.765Z,0
2018-12-02T06:24:54.007Z,0
2018-12-02T06:25:55.843Z,0
2018-12-02T06:26:53.720Z,0
2018-12-02T06:27:53.996Z,0
2018-12-02T06:28:53.943Z,0
2018-12-02T06:29:53.478Z,0
2018-12-02T06:30:53.662Z,0
2018-12-02T06:31:53.641Z,0
2018-12-02T06:32:53.626Z,0
2018-12-02T06:33:53.363Z,0
2018-12-02T06:34:53.834Z,0
2018-12-02T06:35:53.337Z,0
2018-12-02T06:36:53.565Z,0
2018-12-02T06:37:53.802Z,0
2018-12-02T06:38:53.780Z,0
2018-12-02T06:39:53.758Z,0
2018-12-02T06:40:53.503Z,0
2018-12-02T06:41:53.736Z,5
2018-12-02T06:42:53.707Z,5
2018-12-02T06:43:53.695Z,5
2018-12-02T06:44:53.686Z,5
2018-12-02T06:45:53.659Z,5
2018-12-02T06:46:53.648Z,5
2018-12-02T06:47:53.687Z,5
2018-12-02T06:48:53.612Z,5
2018-12-02T06:49:53.352Z,5
2018-12-02T06:50:53.597Z,5
2018-12-02T06:51:53.567Z,5
2018-12-02T06:52:53.554Z,5
2018-12-02T06:53:53.289Z,5
2018-12-02T06:54:53.524Z,5
2018-12-02T06:55:53.256Z,5
2018-12-02T06:56:53.238Z,5
2018-12-02T06:57:53.222Z,5
2018-12-02T06:58:53.459Z,5
2018-12-02T06:59:53.447Z,5
2018-12-02T07:00:53.424Z,5
2018-12-02T07:01:54.155Z,5
2018-12-02T07:02:53.398Z,5
2018-12-02T07:03:53.375Z,5
2018-12-02T07:04:53.364Z,5
2018-12-02T07:05:52.849Z,10
2018-12-02T07:06:53.321Z,10
2018-12-02T07:07:53.310Z,10
2018-12-02T07:08:52.802Z,10
2018-12-02T07:09:53.295Z,10
2018-12-02T07:10:53.260Z,10
2018-12-02T07:11:52.805Z,10
2018-12-02T07:12:52.991Z,5
2018-12-02T07:13:53.220Z,5
2018-12-02T07:14:52.702Z,10
2018-12-02T07:15:53.194Z,10
2018-12-02T07:16:53.167Z,10
2018-12-02T07:17:52.904Z,10
2018-12-02T07:18:52.890Z,10
2018-12-02T07:19:53.120Z,15
2018-12-02T07:20:53.110Z,15
2018-12-02T07:21:53.093Z,15
2018-12-02T07:22:53.071Z,15
2018-12-02T07:23:53.058Z,10
2018-12-02T07:24:53.042Z,10
2018-12-02T07:25:53.031Z,15
2018-12-02T07:26:53.010Z,15
2018-12-02T07:27:52.999Z,15
2018-12-02T07:28:52.987Z,15
2018-12-02T07:29:52.221Z,15
2018-12-02T07:30:52.696Z,15
2018-12-02T07:31:52.933Z,20
2018-12-02T07:32:52.677Z,20
2018-12-02T07:33:52.906Z,20
2018-12-02T07:34:52.636Z,20
2018-12-02T07:35:52.863Z,20
2018-12-02T07:36:52.852Z,20
2018-12-02T07:37:52.345Z,20
2018-12-02T07:38:52.826Z,20
2018-12-02T07:39:52.801Z,20
2018-12-02T07:40:52.794Z,20
2018-12-02T07:41:52.773Z,20
2018-12-02T07:42:52.513Z,20
2018-12-02T07:43:52.748Z,20
2018-12-02T07:44:52.475Z,20
2018-12-02T07:45:52.711Z,25
2018-12-02T07:46:52.442Z,25
2018-12-02T07:47:52.671Z,25
2018-12-02T07:48:52.669Z,30
2018-12-02T07:49:52.649Z,30
2018-12-02T07:50:52.626Z,30
2018-12-02T07:51:52.617Z,35
2018-12-02T07:52:52.596Z,35
2018-12-02T07:53:52.336Z,35
2018-12-02T07:54:52.313Z,40
2018-12-02T07:55:52.293Z,40
2018-12-02T07:56:52.538Z,45
2018-12-02T07:57:52.270Z,45
2018-12-02T07:58:52.505Z,40
2018-12-02T07:59:52.487Z,40
2018-12-02T08:00:52.215Z,45
2018-12-02T08:01:52.451Z,45
2018-12-02T08:02:51.931Z,45
2018-12-02T08:03:52.424Z,50
2018-12-02T08:04:52.403Z,45
2018-12-02T08:05:52.147Z,50
2018-12-02T08:06:52.373Z,50
2018-12-02T08:07:52.352Z,50
2018-12-02T08:08:52.088Z,55
2018-12-02T08:09:52.326Z,55
2018-12-02T08:10:52.322Z,55
2018-12-02T08:11:52.299Z,60
2018-12-02T08:12:52.030Z,60
2018-12-02T08:13:52.260Z,60
2018-12-02T08:14:51.992Z,60
2018-12-02T08:15:52.233Z,60
2018-12-02T08:16:52.210Z,60
2018-12-02T08:17:51.942Z,60
2018-12-02T08:18:51.936Z,60
2018-12-02T08:19:52.165Z,60
2018-12-02T08:20:52.144Z,55
2018-12-02T08:21:52.136Z,55
2018-12-02T08:22:56.296Z,55
2018-12-02T08:23:52.099Z,50
2018-12-02T08:24:52.089Z,50
2018-12-02T08:25:52.083Z,45
2018-12-02T08:26:52.103Z,45
2018-12-02T08:27:52.040Z,45
2018-12-02T08:28:51.777Z,50
2018-12-02T08:29:52.003Z,50
2018-12-02T08:30:51.762Z,55
2018-12-02T08:31:51.976Z,60
2018-12-02T08:32:51.957Z,60
2018-12-02T08:33:51.707Z,65
2018-12-02T08:34:51.690Z,65
2018-12-02T08:35:51.663Z,70
2018-12-02T08:36:51.902Z,70
2018-12-02T08:37:51.881Z,70
2018-12-02T08:38:51.880Z,65
2018-12-02T08:39:51.849Z,65
2018-12-02T08:40:51.837Z,60
2018-12-02T08:41:51.822Z,55
2018-12-02T08:42:51.564Z,50
2018-12-02T08:43:51.949Z,45
2018-12-02T08:44:51.525Z,45
2018-12-02T08:45:51.510Z,45
2018-12-02T08:46:51.501Z,45
2018-12-02T08:47:51.477Z,45
2018-12-02T08:48:51.713Z,40
2018-12-02T08:49:51.453Z,40
2018-12-02T08:50:51.686Z,35
2018-12-02T08:51:51.685Z,40
2018-12-02T08:52:51.411Z,35
2018-12-02T08:53:51.649Z,35
2018-12-02T08:54:51.366Z,30
2018-12-02T08:55:51.609Z,35
2018-12-02T08:56:51.342Z,35
2018-12-02T08:57:51.592Z,35
2018-12-02T08:58:51.561Z,35
2018-12-02T08:59:51.550Z,25
2018-12-02T09:00:51.289Z,30
2018-12-02T09:01:51.524Z,30
2018-12-02T09:02:50.761Z,25
2018-12-02T09:03:51.677Z,25
2018-12-02T09:04:51.468Z,25
2018-12-02T09:05:51.457Z,25
2018-12-02T09:06:51.435Z,30
2018-12-02T09:07:51.426Z,30
2018-12-02T09:08:51.416Z,30
2018-12-02T09:09:59.250Z,25
2018-12-02T09:10:53.429Z,30
2018-12-02T09:11:51.391Z,30
2018-12-02T09:12:51.341Z,30
2018-12-02T09:13:51.081Z,30
2018-12-02T09:14:51.331Z,25
2018-12-02T09:15:51.303Z,25
2018-12-02T09:16:51.303Z,25
2018-12-02T09:17:51.272Z,25
2018-12-02T09:18:51.013Z,25
2018-12-02T09:19:51.235Z,25
2018-12-02T09:20:51.236Z,25
2018-12-02T09:21:51.220Z,25
2018-12-02T09:22:51.189Z,25
2018-12-02T09:23:56.996Z,25
2018-12-02T09:24:51.158Z,25
2018-12-02T09:25:52.283Z,25
2018-12-02T09:26:51.126Z,25
2018-12-02T09:27:50.867Z,25
2018-12-02T09:28:50.867Z,25
2018-12-02T09:29:51.078Z,25
2018-12-02T09:30:50.820Z,25
2018-12-02T09:31:51.056Z,25
2018-12-02T09:32:51.044Z,25
2018-12-02T09:33:51.022Z,25
2018-12-02T09:34:50.764Z,25
2018-12-02T09:35:50.991Z,25
2018-12-02T09:36:51.043Z,25
2018-12-02T09:37:50.960Z,25
2018-12-02T09:38:50.690Z,25
2018-12-02T09:39:50.928Z,25
2018-12-02T09:40:50.665Z,25
2018-12-02T09:41:50.895Z,25
2018-12-02T09:42:50.884Z,25
2018-12-02T09:43:50.863Z,25
2018-12-02T09:44:50.617Z,25
2018-12-02T09:45:50.835Z,25
2018-12-02T09:46:50.819Z,25
2018-12-02T09:47:50.822Z,25
2018-12-02T09:48:50.802Z,25
2018-12-02T09:49:50.774Z,25
2018-12-02T09:50:50.752Z,25
2018-12-02T09:51:50.508Z,25
2018-12-02T09:52:50.723Z,25
2018-12-02T09:53:50.465Z,25
2018-12-02T09:54:50.443Z,25
2018-12-02T09:55:50.683Z,25
2018-12-02T09:56:50.672Z,25
2018-12-02T09:57:50.674Z,25
2018-12-02T09:58:50.632Z,25
2018-12-02T09:59:50.126Z,25
2018-12-02T10:00:50.600Z,25
2018-12-02T10:01:50.587Z,30
2018-12-02T10:02:50.321Z,35
2018-12-02T10:03:50.564Z,40
2018-12-02T10:04:50.302Z,45
2018-12-02T10:05:50.274Z,55
2018-12-02T10:06:50.508Z,60
2018-12-02T10:07:50.492Z,70
2018-12-02T10:08:50.231Z,75
2018-12-02T10:09:50.453Z,70
2018-12-02T10:10:50.193Z,75
2018-12-02T10:11:50.469Z,80
2018-12-02T10:12:50.165Z,85
2018-12-02T10:13:49.896Z,90
2018-12-02T10:14:50.376Z,95
2018-12-02T10:15:50.366Z,100
2018-12-02T10:16:50.149Z,100
2018-12-02T10:17:50.083Z,105
2018-12-02T10:18:50.315Z,100
2018-12-02T10:19:50.055Z,100
2018-12-02T10:20:49.791Z,105
2018-12-02T10:21:50.268Z,105
2018-12-02T10:22:50.266Z,105
2018-12-02T10:23:50.233Z,110
2018-12-02T10:24:49.975Z,115
2018-12-02T10:25:49.953Z,120
2018-12-02T10:26:49.936Z,120
2018-12-02T10:27:49.935Z,125
2018-12-02T10:28:50.153Z,125
2018-12-02T10:29:50.154Z,125
2018-12-02T10:30:50.136Z,125
2018-12-02T10:31:50.118Z,125
2018-12-02T10:32:50.104Z,125
2018-12-02T10:33:50.079Z,120
2018-12-02T10:34:49.820Z,120
2018-12-02T10:35:50.055Z,120
2018-12-02T10:36:50.036Z,125
2018-12-02T10:37:49.785Z,120
2018-12-02T10:38:50.010Z,120
2018-12-02T10:39:49.996Z,120
2018-12-02T10:40:49.978Z,125
2018-12-02T10:41:49.974Z,130
2018-12-02T10:42:49.949Z,130
2018-12-02T10:43:49.933Z,130
2018-12-02T10:44:49.934Z,125
2018-12-02T10:45:49.910Z,120
2018-12-02T10:46:53.485Z,115
2018-12-02T10:47:49.879Z,110
2018-12-02T10:48:49.866Z,100
2018-12-02T10:49:49.844Z,95
2018-12-02T10:50:49.584Z,85
2018-12-02T10:51:49.567Z,90
2018-12-02T10:52:49.555Z,85
2018-12-02T10:53:49.534Z,85
2018-12-02T10:54:49.513Z,85
2018-12-02T10:55:49.510Z,85
2018-12-02T10:56:49.484Z,85
2018-12-02T10:57:49.471Z,85
2018-12-02T10:58:49.705Z,85
2018-12-02T10:59:49.436Z,85
2018-12-02T11:00:49.686Z,85
2018-12-02T11:01:49.733Z,85
2018-12-02T11:02:49.648Z,85
2018-12-02T11:03:49.382Z,85
2018-12-02T11:04:49.372Z,85
2018-12-02T11:05:49.359Z,90
2018-12-02T11:06:49.350Z,90
2018-12-02T11:07:49.327Z,95
2018-12-02T11:08:49.564Z,90
2018-12-02T11:09:49.559Z,85
2018-12-02T11:10:49.297Z,80
2018-12-02T11:11:49.855Z,75
2018-12-02T11:12:49.504Z,75
2018-12-02T11:13:49.246Z,75
2018-12-02T11:14:49.226Z,70
2018-12-02T11:15:49.204Z,70
2018-12-02T11:16:49.434Z,70
2018-12-02T11:17:49.437Z,80
2018-12-02T11:18:49.411Z,75
2018-12-02T11:19:49.144Z,80
2018-12-02T11:20:49.140Z,85
2018-12-02T11:21:49.357Z,85
2018-12-02T11:22:49.350Z,85
2018-12-02T11:23:49.091Z,85
2018-12-02T11:24:49.076Z,75
2018-12-02T11:25:49.060Z,85
2018-12-02T11:26:49.284Z,90
2018-12-02T11:27:49.277Z,85
2018-12-02T11:28:49.271Z,90
2018-12-02T11:29:50.010Z,95
2018-12-02T11:30:49.277Z,95
2018-12-02T11:31:49.213Z,90
2018-12-02T11:32:49.256Z,90
2018-12-02T11:33:48.952Z,90
2018-12-02T11:34:49.176Z,90
2018-12-02T11:35:49.930Z,90
2018-12-02T11:36:49.142Z,90
2018-12-02T11:37:48.632Z,85
2018-12-02T11:38:48.863Z,90
2018-12-02T11:39:49.102Z,85
2018-12-02T11:40:49.078Z,90
2018-12-02T11:41:49.065Z,95
2018-12-02T11:42:49.045Z,95
2018-12-02T11:43:49.046Z,95
2018-12-02T11:44:49.028Z,95
2018-12-02T11:45:49.015Z,95
2018-12-02T11:46:48.997Z,90
2018-12-02T11:47:48.987Z,95
2018-12-02T11:48:48.966Z,100
2018-12-02T11:49:48.955Z,100
2018-12-02T11:50:48.688Z,115
2018-12-02T11:51:48.695Z,120
2018-12-02T11:52:48.931Z,130
2018-12-02T11:53:48.889Z,145
2018-12-02T11:54:48.629Z,150
2018-12-02T11:55:48.611Z,160
2018-12-02T11:56:48.645Z,175
2018-12-02T11:57:48.841Z,190
2018-12-02T11:58:48.568Z,190
2018-12-02T11:59:48.813Z,180
2018-12-02T12:00:48.788Z,190
2018-12-02T12:01:48.792Z,185
2018-12-02T12:02:48.761Z,180
2018-12-02T12:03:48.808Z,180
2018-12-02T12:04:48.737Z,165
2018-12-02T12:05:48.517Z,165
2018-12-02T12:06:48.465Z,150
2018-12-02T12:07:48.687Z,140
2018-12-02T12:08:48.676Z,145
2018-12-02T12:09:48.663Z,155
2018-12-02T12:10:48.654Z,165
2018-12-02T12:11:48.385Z,160
2018-12-02T12:12:48.615Z,155
2018-12-02T12:13:48.607Z,150
2018-12-02T12:14:49.295Z,135
2018-12-02T12:15:48.586Z,125
2018-12-02T12:16:48.567Z,115
2018-12-02T12:17:48.546Z,110
2018-12-02T12:18:48.331Z,110
2018-12-02T12:19:49.193Z,100
2018-12-02T12:20:48.263Z,110
2018-12-02T12:21:48.005Z,115
2018-12-02T12:22:48.475Z,105
2018-12-02T12:23:47.724Z,125
2018-12-02T12:24:48.457Z,130
2018-12-02T12:25:48.437Z,130
2018-12-02T12:26:48.176Z,130
2018-12-02T12:27:48.408Z,130
2018-12-02T12:28:48.400Z,125
2018-12-02T12:29:48.381Z,125
2018-12-02T12:30:48.368Z,115
2018-12-02T12:31:48.106Z,105
2018-12-02T12:32:48.342Z,100
2018-12-02T12:33:48.331Z,100
2018-12-02T12:34:48.313Z,95
2018-12-02T12:35:48.299Z,95
2018-12-02T12:36:48.291Z,95
2018-12-02T12:37:48.023Z,90
2018-12-02T12:38:48.341Z,90
2018-12-02T12:39:48.000Z,90
2018-12-02T12:40:48.232Z,85
2018-12-02T12:41:48.220Z,80
2018-12-02T12:42:47.955Z,80
2018-12-02T12:43:48.196Z,80
2018-12-02T12:44:48.179Z,85
2018-12-02T12:45:48.182Z,85
2018-12-02T12:46:48.148Z,85
2018-12-02T12:47:47.885Z,85
2018-12-02T12:48:48.121Z,80
2018-12-02T12:49:48.105Z,80
2018-12-02T12:50:48.097Z,75
2018-12-02T12:51:49.427Z,75
2018-12-02T12:52:47.815Z,75
2018-12-02T12:53:48.049Z,75
2018-12-02T12:54:48.046Z,75
2018-12-02T12:55:53.161Z,80
2018-12-02T12:56:47.760Z,80
2018-12-02T12:57:47.740Z,80
2018-12-02T12:58:47.981Z,80
2018-12-02T12:59:47.713Z,80
2018-12-02T13:00:47.705Z,80
2018-12-02T13:01:47.687Z,80
2018-12-02T13:02:47.935Z,75
2018-12-02T13:03:47.660Z,75
2018-12-02T13:04:47.896Z,70
2018-12-02T13:05:47.646Z,70
2018-12-02T13:06:47.884Z,65
2018-12-02T13:07:48.213Z,65
2018-12-02T13:08:47.595Z,65
2018-12-02T13:09:47.834Z,65
2018-12-02T13:10:47.838Z,70
2018-12-02T13:11:47.555Z,65
2018-12-02T13:12:47.789Z,65
2018-12-02T13:13:47.779Z,70
2018-12-02T13:14:47.760Z,65
2018-12-02T13:15:47.790Z,60
2018-12-02T13:16:47.736Z,60
2018-12-02T13:17:47.721Z,55
2018-12-02T13:18:47.711Z,50
2018-12-02T13:19:47.691Z,50
2018-12-02T13:20:47.683Z,45
2018-12-02T13:21:47.416Z,40
2018-12-02T13:22:47.395Z,40
2018-12-02T13:23:47.398Z,35
2018-12-02T13:24:47.622Z,30
2018-12-02T13:25:47.613Z,30
2018-12-02T13:26:47.361Z,30
2018-12-02T13:27:47.576Z,25
2018-12-02T13:28:47.571Z,25
2018-12-02T13:29:47.550Z,25
2018-12-02T13:30:47.341Z,20
2018-12-02T13:31:47.547Z,20
2018-12-02T13:32:47.514Z,15
2018-12-02T13:33:47.500Z,15
2018-12-02T13:34:47.237Z,15
2018-12-02T13:35:47.469Z,10
2018-12-02T13:36:47.453Z,10
2018-12-02T13:37:47.438Z,10
2018-12-02T13:38:47.173Z,10
2018-12-02T13:39:47.161Z,10
2018-12-02T13:40:47.403Z,10
2018-12-02T13:41:46.888Z,10
2018-12-02T13:42:46.874Z,15
2018-12-02T13:43:48.272Z,15
2018-12-02T13:44:47.101Z,15
2018-12-02T13:45:47.331Z,15
2018-12-02T13:46:47.068Z,15
2018-12-02T13:47:47.306Z,15
2018-12-02T13:48:47.038Z,15
2018-12-02T13:49:47.272Z,15
2018-12-02T13:50:48.470Z,15
2018-12-02T13:51:47.241Z,15
2018-12-02T13:52:46.727Z,15
2018-12-02T13:53:46.966Z,15
2018-12-02T13:54:46.950Z,15
2018-12-02T13:55:46.934Z,15
2018-12-02T13:56:46.423Z,15
2018-12-02T13:57:47.149Z,15
2018-12-02T13:58:46.894Z,10
2018-12-02T13:59:46.632Z,10
2018-12-02T14:00:47.112Z,10
2018-12-02T14:01:46.884Z,10
2018-12-02T14:02:46.831Z,10
2018-12-02T14:03:46.565Z,10
2018-12-02T14:04:47.056Z,10
2018-12-02T14:05:46.546Z,10
2018-12-02T14:06:47.028Z,10
2018-12-02T14:07:47.011Z,10
2018-12-02T14:08:46.750Z,10
2018-12-02T14:09:46.987Z,10
2018-12-02T14:10:46.985Z,10
2018-12-02T14:11:46.953Z,10
2018-12-02T14:12:46.693Z,10
2018-12-02T14:13:46.680Z,10
2018-12-02T14:14:46.412Z,10
2018-12-02T14:15:46.403Z,10
2018-12-02T14:16:46.891Z,10
2018-12-02T14:17:46.625Z,10
2018-12-02T14:18:46.866Z,10
2018-12-02T14:19:46.344Z,10
2018-12-02T14:20:46.581Z,10
2018-12-02T14:21:46.810Z,10
2018-12-02T14:22:46.800Z,10
2018-12-02T14:23:46.800Z,5
2018-12-02T14:24:46.770Z,5
2018-12-02T14:25:46.502Z,5
2018-12-02T14:26:46.744Z,5
2018-12-02T14:27:46.496Z,5
2018-12-02T14:28:46.715Z,5
2018-12-02T14:29:46.447Z,5
2018-12-02T14:30:46.740Z,5
2018-12-02T14:31:46.669Z,5